KMWO/MWO METAR and TAF weather

Enter ICAO airport designator
Station Type Date Time Source
KMWO METAR 2021/09/25 13:15 UTC NOAA

KMWO 251315Z AUTO 20007KT 7SM -RA BR SCT022 SCT055 OVC085 14/14 A3004 RMK AO2 T01440136


Station Type Date Time Source
KMWO Decoded METAR 2021/09/25 13:15 UTC NOAA

Station name not available
Sep 25, 2021 - 09:15 AM EDT / 2021.09.25 1315 UTC
Wind: from the SSW (200 degrees) at 8 MPH (7 KT):0
Visibility: 7 mile(s):0
Sky conditions: overcast
Weather: light rain; mist
Temperature: 57.9 F (14.4 C)
Dew Point: 56.5 F (13.6 C)
Relative Humidity: 94%
Pressure (altimeter): 30.04 in. Hg (1017 hPa)
ob: KMWO 251315Z AUTO 20007KT 7SM -RA BR SCT022 SCT055 OVC085 14/14 A3004 RMK AO2 T01440136
cycle: 13

Station Type Date Time Source
KMWO TAF UTC NOAA

Error!

Example: see airport list